sensor_id;sensor_type;location;lat;lon;timestamp;P1;durP1;ratioP1;P2;durP2;ratioP2
39948;SDS011;29070;48.102;-1.652;2022-09-09T00:02:41;11.93;;;2.35;;
39948;SDS011;29070;48.102;-1.652;2022-09-09T00:07:47;18.67;;;2.58;;
39948;SDS011;29070;48.102;-1.652;2022-09-09T00:18:28;10.70;;;1.77;;
39948;SDS011;29070;48.102;-1.652;2022-09-09T00:23:38;10.80;;;2.45;;
39948;SDS011;29070;48.102;-1.652;2022-09-09T00:28:42;12.77;;;2.15;;
39948;SDS011;29070;48.102;-1.652;2022-09-09T00:33:48;13.52;;;2.00;;
39948;SDS011;29070;48.102;-1.652;2022-09-09T00:38:56;14.82;;;2.13;;
39948;SDS011;29070;48.102;-1.652;2022-09-09T00:49:40;10.82;;;2.13;;
39948;SDS011;29070;48.102;-1.652;2022-09-09T00:54:46;12.82;;;1.98;;
39948;SDS011;29070;48.102;-1.652;2022-09-09T00:59:56;6.65;;;1.88;;
39948;SDS011;29070;48.102;-1.652;2022-09-09T01:05:02;15.43;;;2.45;;
39948;SDS011;29070;48.102;-1.652;2022-09-09T01:10:15;8.60;;;2.15;;
39948;SDS011;29070;48.102;-1.652;2022-09-09T01:15:29;12.32;;;1.63;;
39948;SDS011;29070;48.102;-1.652;2022-09-09T01:26:15;8.02;;;1.75;;
39948;SDS011;29070;48.102;-1.652;2022-09-09T01:41:51;7.68;;;1.73;;
39948;SDS011;29070;48.102;-1.652;2022-09-09T01:46:52;13.05;;;2.35;;
39948;SDS011;29070;48.102;-1.652;2022-09-09T01:58:03;15.52;;;1.88;;
39948;SDS011;29070;48.102;-1.652;2022-09-09T02:03:05;14.70;;;1.75;;
39948;SDS011;29070;48.102;-1.652;2022-09-09T02:13:23;11.98;;;1.88;;
39948;SDS011;29070;48.102;-1.652;2022-09-09T02:18:30;14.70;;;1.70;;
39948;SDS011;29070;48.102;-1.652;2022-09-09T02:23:34;11.98;;;2.08;;
39948;SDS011;29070;48.102;-1.652;2022-09-09T02:28:36;10.95;;;1.55;;
39948;SDS011;29070;48.102;-1.652;2022-09-09T02:33:41;10.73;;;1.65;;
39948;SDS011;29070;48.102;-1.652;2022-09-09T02:38:46;8.77;;;1.42;;
39948;SDS011;29070;48.102;-1.652;2022-09-09T02:43:50;8.45;;;1.33;;
39948;SDS011;29070;48.102;-1.652;2022-09-09T02:48:52;11.00;;;1.93;;
39948;SDS011;29070;48.102;-1.652;2022-09-09T02:59:21;7.28;;;1.52;;
39948;SDS011;29070;48.102;-1.652;2022-09-09T03:04:22;9.13;;;1.58;;
39948;SDS011;29070;48.102;-1.652;2022-09-09T03:09:24;10.27;;;1.40;;
39948;SDS011;29070;48.102;-1.652;2022-09-09T03:14:25;6.47;;;1.00;;
39948;SDS011;29070;48.102;-1.652;2022-09-09T03:19:26;8.03;;;1.70;;
39948;SDS011;29070;48.102;-1.652;2022-09-09T03:24:27;5.68;;;1.45;;
39948;SDS011;29070;48.102;-1.652;2022-09-09T03:29:28;9.27;;;2.13;;
39948;SDS011;29070;48.102;-1.652;2022-09-09T03:34:28;6.70;;;1.43;;
39948;SDS011;29070;48.102;-1.652;2022-09-09T03:39:28;9.83;;;1.40;;
39948;SDS011;29070;48.102;-1.652;2022-09-09T03:44:29;5.80;;;1.23;;
39948;SDS011;29070;48.102;-1.652;2022-09-09T03:49:30;11.85;;;1.70;;
39948;SDS011;29070;48.102;-1.652;2022-09-09T03:54:30;5.90;;;1.00;;
39948;SDS011;29070;48.102;-1.652;2022-09-09T03:59:30;5.93;;;1.23;;
39948;SDS011;29070;48.102;-1.652;2022-09-09T04:04:31;8.60;;;1.43;;
39948;SDS011;29070;48.102;-1.652;2022-09-09T04:09:32;11.35;;;1.67;;
39948;SDS011;29070;48.102;-1.652;2022-09-09T04:14:33;9.35;;;1.60;;
39948;SDS011;29070;48.102;-1.652;2022-09-09T04:19:33;5.32;;;1.40;;
39948;SDS011;29070;48.102;-1.652;2022-09-09T04:24:33;5.83;;;1.60;;
39948;SDS011;29070;48.102;-1.652;2022-09-09T04:29:35;6.22;;;1.88;;
39948;SDS011;29070;48.102;-1.652;2022-09-09T04:34:35;9.37;;;1.37;;
39948;SDS011;29070;48.102;-1.652;2022-09-09T04:39:35;7.67;;;1.93;;
39948;SDS011;29070;48.102;-1.652;2022-09-09T04:44:36;10.07;;;1.88;;
39948;SDS011;29070;48.102;-1.652;2022-09-09T04:49:37;8.47;;;1.20;;
39948;SDS011;29070;48.102;-1.652;2022-09-09T04:54:38;13.27;;;2.13;;
39948;SDS011;29070;48.102;-1.652;2022-09-09T04:59:38;7.55;;;1.50;;
39948;SDS011;29070;48.102;-1.652;2022-09-09T05:04:41;9.32;;;1.42;;
39948;SDS011;29070;48.102;-1.652;2022-09-09T05:09:42;8.00;;;1.87;;
39948;SDS011;29070;48.102;-1.652;2022-09-09T05:14:43;9.70;;;1.70;;
39948;SDS011;29070;48.102;-1.652;2022-09-09T05:19:43;8.52;;;2.45;;
39948;SDS011;29070;48.102;-1.652;2022-09-09T05:24:44;7.73;;;1.70;;
39948;SDS011;29070;48.102;-1.652;2022-09-09T05:29:45;13.00;;;1.80;;
39948;SDS011;29070;48.102;-1.652;2022-09-09T05:34:46;6.05;;;2.03;;
39948;SDS011;29070;48.102;-1.652;2022-09-09T05:39:46;10.65;;;2.10;;
39948;SDS011;29070;48.102;-1.652;2022-09-09T05:44:47;7.77;;;1.80;;
39948;SDS011;29070;48.102;-1.652;2022-09-09T05:49:47;8.47;;;1.63;;
39948;SDS011;29070;48.102;-1.652;2022-09-09T05:54:48;9.45;;;2.55;;
39948;SDS011;29070;48.102;-1.652;2022-09-09T05:59:48;13.23;;;1.90;;
39948;SDS011;29070;48.102;-1.652;2022-09-09T06:04:49;11.15;;;1.98;;
39948;SDS011;29070;48.102;-1.652;2022-09-09T06:09:50;7.20;;;1.90;;
39948;SDS011;29070;48.102;-1.652;2022-09-09T06:14:51;12.18;;;1.90;;
39948;SDS011;29070;48.102;-1.652;2022-09-09T06:19:51;8.37;;;1.50;;
39948;SDS011;29070;48.102;-1.652;2022-09-09T06:24:52;10.75;;;1.70;;
39948;SDS011;29070;48.102;-1.652;2022-09-09T06:29:53;7.45;;;1.33;;
39948;SDS011;29070;48.102;-1.652;2022-09-09T06:34:53;7.00;;;1.80;;
39948;SDS011;29070;48.102;-1.652;2022-09-09T06:39:54;8.80;;;1.60;;
39948;SDS011;29070;48.102;-1.652;2022-09-09T06:44:54;10.93;;;1.60;;
39948;SDS011;29070;48.102;-1.652;2022-09-09T06:49:55;4.57;;;1.37;;
39948;SDS011;29070;48.102;-1.652;2022-09-09T06:54:56;13.32;;;1.80;;
39948;SDS011;29070;48.102;-1.652;2022-09-09T06:59:58;9.98;;;1.77;;
39948;SDS011;29070;48.102;-1.652;2022-09-09T07:04:58;8.57;;;1.93;;
39948;SDS011;29070;48.102;-1.652;2022-09-09T07:09:59;9.77;;;2.30;;
39948;SDS011;29070;48.102;-1.652;2022-09-09T07:14:59;13.23;;;2.37;;
39948;SDS011;29070;48.102;-1.652;2022-09-09T07:20:00;13.02;;;2.10;;
39948;SDS011;29070;48.102;-1.652;2022-09-09T07:25:02;4.70;;;1.55;;
39948;SDS011;29070;48.102;-1.652;2022-09-09T07:30:03;6.22;;;1.33;;
39948;SDS011;29070;48.102;-1.652;2022-09-09T07:35:04;8.93;;;2.03;;
39948;SDS011;29070;48.102;-1.652;2022-09-09T07:40:05;10.35;;;1.33;;
39948;SDS011;29070;48.102;-1.652;2022-09-09T07:45:06;7.75;;;1.58;;
39948;SDS011;29070;48.102;-1.652;2022-09-09T07:50:06;8.43;;;1.30;;
39948;SDS011;29070;48.102;-1.652;2022-09-09T07:55:09;4.03;;;1.30;;
39948;SDS011;29070;48.102;-1.652;2022-09-09T08:00:09;3.37;;;1.23;;
39948;SDS011;29070;48.102;-1.652;2022-09-09T08:05:10;9.23;;;1.85;;
39948;SDS011;29070;48.102;-1.652;2022-09-09T08:10:11;7.60;;;1.77;;
39948;SDS011;29070;48.102;-1.652;2022-09-09T08:15:11;6.20;;;1.40;;
39948;SDS011;29070;48.102;-1.652;2022-09-09T08:20:12;8.15;;;1.48;;
39948;SDS011;29070;48.102;-1.652;2022-09-09T08:25:13;9.73;;;1.27;;
39948;SDS011;29070;48.102;-1.652;2022-09-09T08:30:13;5.07;;;1.20;;
39948;SDS011;29070;48.102;-1.652;2022-09-09T08:35:14;8.35;;;2.38;;
39948;SDS011;29070;48.102;-1.652;2022-09-09T08:40:17;8.13;;;1.60;;
39948;SDS011;29070;48.102;-1.652;2022-09-09T08:50:29;9.70;;;1.80;;
39948;SDS011;29070;48.102;-1.652;2022-09-09T09:00:43;3.95;;;1.30;;
39948;SDS011;29070;48.102;-1.652;2022-09-09T09:05:46;9.52;;;1.42;;
39948;SDS011;29070;48.102;-1.652;2022-09-09T09:10:54;6.18;;;4.80;;
39948;SDS011;29070;48.102;-1.652;2022-09-09T09:16:02;9.23;;;2.17;;
39948;SDS011;29070;48.102;-1.652;2022-09-09T09:26:43;14.13;;;4.80;;
39948;SDS011;29070;48.102;-1.652;2022-09-09T09:31:55;7.07;;;2.38;;
39948;SDS011;29070;48.102;-1.652;2022-09-09T09:36:57;4.90;;;1.40;;
39948;SDS011;29070;48.102;-1.652;2022-09-09T09:42:34;8.53;;;1.40;;
39948;SDS011;29070;48.102;-1.652;2022-09-09T09:47:28;7.80;;;1.20;;
39948;SDS011;29070;48.102;-1.652;2022-09-09T09:52:30;7.43;;;1.13;;
39948;SDS011;29070;48.102;-1.652;2022-09-09T09:57:31;3.33;;;1.38;;
39948;SDS011;29070;48.102;-1.652;2022-09-09T10:02:38;8.02;;;1.23;;
39948;SDS011;29070;48.102;-1.652;2022-09-09T10:07:43;6.85;;;1.00;;
39948;SDS011;29070;48.102;-1.652;2022-09-09T10:13:05;6.88;;;1.42;;
39948;SDS011;29070;48.102;-1.652;2022-09-09T10:55:27;8.10;;;0.98;;
39948;SDS011;29070;48.102;-1.652;2022-09-09T11:00:54;6.85;;;1.00;;
39948;SDS011;29070;48.102;-1.652;2022-09-09T11:06:06;2.40;;;0.90;;
39948;SDS011;29070;48.102;-1.652;2022-09-09T11:21:43;2.60;;;0.70;;
39948;SDS011;29070;48.102;-1.652;2022-09-09T11:26:57;1.57;;;0.70;;
39948;SDS011;29070;48.102;-1.652;2022-09-09T11:32:08;3.95;;;0.80;;
39948;SDS011;29070;48.102;-1.652;2022-09-09T11:42:23;8.35;;;1.60;;
39948;SDS011;29070;48.102;-1.652;2022-09-09T11:52:36;5.43;;;0.90;;
39948;SDS011;29070;48.102;-1.652;2022-09-09T11:57:38;4.45;;;0.70;;
39948;SDS011;29070;48.102;-1.652;2022-09-09T12:02:47;2.28;;;0.32;;
39948;SDS011;29070;48.102;-1.652;2022-09-09T12:07:51;4.07;;;0.60;;
39948;SDS011;29070;48.102;-1.652;2022-09-09T12:13:07;1.88;;;0.60;;
39948;SDS011;29070;48.102;-1.652;2022-09-09T12:18:24;4.57;;;0.95;;
39948;SDS011;29070;48.102;-1.652;2022-09-09T12:23:48;5.65;;;0.77;;
39948;SDS011;29070;48.102;-1.652;2022-09-09T12:34:28;3.72;;;0.90;;
39948;SDS011;29070;48.102;-1.652;2022-09-09T12:39:39;3.78;;;0.70;;
39948;SDS011;29070;48.102;-1.652;2022-09-09T12:44:52;7.13;;;0.90;;
39948;SDS011;29070;48.102;-1.652;2022-09-09T12:49:56;8.32;;;1.10;;
39948;SDS011;29070;48.102;-1.652;2022-09-09T12:54:58;8.85;;;0.93;;
39948;SDS011;29070;48.102;-1.652;2022-09-09T13:00:08;6.78;;;1.10;;
39948;SDS011;29070;48.102;-1.652;2022-09-09T13:05:17;5.57;;;0.70;;
39948;SDS011;29070;48.102;-1.652;2022-09-09T13:10:22;4.60;;;0.90;;
39948;SDS011;29070;48.102;-1.652;2022-09-09T13:15:27;5.00;;;0.60;;
39948;SDS011;29070;48.102;-1.652;2022-09-09T13:20:29;7.55;;;1.05;;
39948;SDS011;29070;48.102;-1.652;2022-09-09T13:25:30;7.68;;;1.27;;
39948;SDS011;29070;48.102;-1.652;2022-09-09T13:30:32;6.13;;;0.97;;
39948;SDS011;29070;48.102;-1.652;2022-09-09T13:35:45;9.33;;;5.30;;
39948;SDS011;29070;48.102;-1.652;2022-09-09T13:40:53;6.82;;;1.10;;
39948;SDS011;29070;48.102;-1.652;2022-09-09T13:46:00;3.85;;;1.10;;
39948;SDS011;29070;48.102;-1.652;2022-09-09T13:51:03;4.53;;;1.05;;
39948;SDS011;29070;48.102;-1.652;2022-09-09T13:56:05;3.25;;;0.90;;
39948;SDS011;29070;48.102;-1.652;2022-09-09T14:01:05;7.83;;;0.93;;
39948;SDS011;29070;48.102;-1.652;2022-09-09T14:06:06;5.30;;;0.70;;
39948;SDS011;29070;48.102;-1.652;2022-09-09T14:11:08;2.38;;;0.65;;
39948;SDS011;29070;48.102;-1.652;2022-09-09T14:16:12;4.75;;;0.70;;
39948;SDS011;29070;48.102;-1.652;2022-09-09T14:21:12;4.53;;;0.57;;
39948;SDS011;29070;48.102;-1.652;2022-09-09T14:26:14;1.17;;;0.40;;
39948;SDS011;29070;48.102;-1.652;2022-09-09T14:31:15;2.63;;;0.70;;
39948;SDS011;29070;48.102;-1.652;2022-09-09T14:36:17;5.70;;;0.80;;
39948;SDS011;29070;48.102;-1.652;2022-09-09T14:41:18;3.30;;;0.60;;
39948;SDS011;29070;48.102;-1.652;2022-09-09T14:46:20;1.63;;;0.60;;
39948;SDS011;29070;48.102;-1.652;2022-09-09T14:51:22;1.95;;;0.60;;
39948;SDS011;29070;48.102;-1.652;2022-09-09T14:56:26;1.85;;;0.43;;
39948;SDS011;29070;48.102;-1.652;2022-09-09T15:01:30;2.13;;;1.00;;
39948;SDS011;29070;48.102;-1.652;2022-09-09T15:06:33;4.20;;;0.80;;
39948;SDS011;29070;48.102;-1.652;2022-09-09T15:11:37;6.60;;;2.43;;
39948;SDS011;29070;48.102;-1.652;2022-09-09T15:16:37;3.03;;;1.38;;
39948;SDS011;29070;48.102;-1.652;2022-09-09T15:21:39;2.50;;;0.65;;
39948;SDS011;29070;48.102;-1.652;2022-09-09T15:26:39;1.63;;;0.65;;
39948;SDS011;29070;48.102;-1.652;2022-09-09T15:31:40;3.60;;;0.60;;
39948;SDS011;29070;48.102;-1.652;2022-09-09T15:36:41;2.97;;;0.50;;
39948;SDS011;29070;48.102;-1.652;2022-09-09T15:41:44;3.47;;;0.60;;
39948;SDS011;29070;48.102;-1.652;2022-09-09T15:46:49;3.08;;;0.88;;
39948;SDS011;29070;48.102;-1.652;2022-09-09T15:51:55;4.40;;;0.80;;
39948;SDS011;29070;48.102;-1.652;2022-09-09T15:57:03;1.35;;;0.63;;
39948;SDS011;29070;48.102;-1.652;2022-09-09T16:02:05;3.55;;;0.57;;
39948;SDS011;29070;48.102;-1.652;2022-09-09T16:07:07;3.88;;;0.63;;
39948;SDS011;29070;48.102;-1.652;2022-09-09T16:12:07;5.25;;;1.35;;
39948;SDS011;29070;48.102;-1.652;2022-09-09T16:17:09;3.17;;;1.42;;
39948;SDS011;29070;48.102;-1.652;2022-09-09T16:22:11;4.45;;;1.00;;
39948;SDS011;29070;48.102;-1.652;2022-09-09T16:27:11;4.78;;;0.85;;
39948;SDS011;29070;48.102;-1.652;2022-09-09T16:32:11;3.40;;;0.60;;
39948;SDS011;29070;48.102;-1.652;2022-09-09T16:37:12;4.60;;;0.50;;
39948;SDS011;29070;48.102;-1.652;2022-09-09T16:42:12;4.17;;;0.70;;
39948;SDS011;29070;48.102;-1.652;2022-09-09T16:47:13;4.77;;;0.70;;
39948;SDS011;29070;48.102;-1.652;2022-09-09T16:52:13;4.57;;;0.70;;
39948;SDS011;29070;48.102;-1.652;2022-09-09T16:57:13;2.67;;;0.63;;
39948;SDS011;29070;48.102;-1.652;2022-09-09T17:02:14;9.23;;;1.10;;
39948;SDS011;29070;48.102;-1.652;2022-09-09T17:07:14;3.20;;;0.77;;
39948;SDS011;29070;48.102;-1.652;2022-09-09T17:12:15;7.17;;;1.03;;
39948;SDS011;29070;48.102;-1.652;2022-09-09T17:17:16;8.75;;;1.00;;
39948;SDS011;29070;48.102;-1.652;2022-09-09T17:22:17;9.57;;;0.90;;
39948;SDS011;29070;48.102;-1.652;2022-09-09T17:27:18;4.43;;;0.85;;
39948;SDS011;29070;48.102;-1.652;2022-09-09T17:32:18;4.97;;;0.95;;
39948;SDS011;29070;48.102;-1.652;2022-09-09T17:37:19;5.10;;;0.73;;
39948;SDS011;29070;48.102;-1.652;2022-09-09T17:42:19;1.77;;;0.50;;
39948;SDS011;29070;48.102;-1.652;2022-09-09T17:47:19;2.17;;;0.50;;
39948;SDS011;29070;48.102;-1.652;2022-09-09T17:52:20;5.10;;;0.77;;
39948;SDS011;29070;48.102;-1.652;2022-09-09T17:57:21;7.30;;;0.60;;
39948;SDS011;29070;48.102;-1.652;2022-09-09T18:02:22;3.75;;;0.60;;
39948;SDS011;29070;48.102;-1.652;2022-09-09T18:07:22;2.63;;;0.50;;
39948;SDS011;29070;48.102;-1.652;2022-09-09T18:12:23;1.70;;;0.70;;
39948;SDS011;29070;48.102;-1.652;2022-09-09T18:17:24;1.80;;;0.50;;
39948;SDS011;29070;48.102;-1.652;2022-09-09T18:22:24;3.10;;;0.50;;
39948;SDS011;29070;48.102;-1.652;2022-09-09T18:27:24;5.63;;;0.77;;
39948;SDS011;29070;48.102;-1.652;2022-09-09T18:32:25;2.37;;;0.80;;
39948;SDS011;29070;48.102;-1.652;2022-09-09T18:37:26;2.45;;;0.68;;
39948;SDS011;29070;48.102;-1.652;2022-09-09T18:42:27;3.07;;;0.90;;
39948;SDS011;29070;48.102;-1.652;2022-09-09T18:47:27;3.87;;;0.80;;
39948;SDS011;29070;48.102;-1.652;2022-09-09T18:52:27;5.57;;;0.90;;
39948;SDS011;29070;48.102;-1.652;2022-09-09T18:57:28;4.30;;;0.80;;
39948;SDS011;29070;48.102;-1.652;2022-09-09T19:02:28;5.27;;;1.07;;
39948;SDS011;29070;48.102;-1.652;2022-09-09T19:07:28;6.80;;;0.90;;
39948;SDS011;29070;48.102;-1.652;2022-09-09T19:12:29;5.03;;;1.13;;
39948;SDS011;29070;48.102;-1.652;2022-09-09T19:17:29;5.20;;;1.10;;
39948;SDS011;29070;48.102;-1.652;2022-09-09T19:22:31;4.40;;;1.27;;
39948;SDS011;29070;48.102;-1.652;2022-09-09T19:27:32;3.78;;;1.13;;
39948;SDS011;29070;48.102;-1.652;2022-09-09T19:32:32;3.00;;;0.90;;
39948;SDS011;29070;48.102;-1.652;2022-09-09T19:37:32;4.40;;;1.03;;
39948;SDS011;29070;48.102;-1.652;2022-09-09T19:42:33;3.80;;;1.07;;
39948;SDS011;29070;48.102;-1.652;2022-09-09T19:47:33;6.43;;;1.50;;
39948;SDS011;29070;48.102;-1.652;2022-09-09T19:52:34;3.25;;;1.10;;
39948;SDS011;29070;48.102;-1.652;2022-09-09T19:57:34;2.30;;;1.00;;
39948;SDS011;29070;48.102;-1.652;2022-09-09T20:02:36;6.57;;;1.10;;
39948;SDS011;29070;48.102;-1.652;2022-09-09T20:07:36;6.17;;;1.37;;
39948;SDS011;29070;48.102;-1.652;2022-09-09T20:12:36;7.07;;;1.87;;
39948;SDS011;29070;48.102;-1.652;2022-09-09T20:17:36;5.57;;;1.03;;
39948;SDS011;29070;48.102;-1.652;2022-09-09T20:22:37;1.97;;;0.83;;
39948;SDS011;29070;48.102;-1.652;2022-09-09T20:27:37;4.63;;;1.30;;
39948;SDS011;29070;48.102;-1.652;2022-09-09T20:32:37;5.80;;;1.47;;
39948;SDS011;29070;48.102;-1.652;2022-09-09T20:37:41;6.83;;;1.20;;
39948;SDS011;29070;48.102;-1.652;2022-09-09T20:42:41;4.18;;;1.00;;
39948;SDS011;29070;48.102;-1.652;2022-09-09T20:47:42;2.95;;;0.85;;
39948;SDS011;29070;48.102;-1.652;2022-09-09T20:52:43;4.90;;;1.27;;
39948;SDS011;29070;48.102;-1.652;2022-09-09T20:57:43;4.10;;;1.20;;
39948;SDS011;29070;48.102;-1.652;2022-09-09T21:02:44;4.10;;;1.20;;
39948;SDS011;29070;48.102;-1.652;2022-09-09T21:07:44;4.80;;;1.20;;
39948;SDS011;29070;48.102;-1.652;2022-09-09T21:12:45;5.22;;;1.17;;
39948;SDS011;29070;48.102;-1.652;2022-09-09T21:17:45;4.17;;;0.90;;
39948;SDS011;29070;48.102;-1.652;2022-09-09T21:22:45;9.10;;;1.17;;
39948;SDS011;29070;48.102;-1.652;2022-09-09T21:27:46;5.30;;;1.53;;
39948;SDS011;29070;48.102;-1.652;2022-09-09T21:32:46;5.53;;;1.10;;
39948;SDS011;29070;48.102;-1.652;2022-09-09T21:37:47;3.10;;;1.00;;
39948;SDS011;29070;48.102;-1.652;2022-09-09T21:42:48;5.55;;;1.33;;
39948;SDS011;29070;48.102;-1.652;2022-09-09T21:47:48;3.30;;;0.97;;
39948;SDS011;29070;48.102;-1.652;2022-09-09T21:52:50;2.30;;;0.82;;
39948;SDS011;29070;48.102;-1.652;2022-09-09T21:57:50;5.30;;;1.03;;
39948;SDS011;29070;48.102;-1.652;2022-09-09T22:02:50;2.97;;;0.80;;
39948;SDS011;29070;48.102;-1.652;2022-09-09T22:07:51;6.65;;;1.10;;
39948;SDS011;29070;48.102;-1.652;2022-09-09T22:12:52;4.93;;;1.40;;
39948;SDS011;29070;48.102;-1.652;2022-09-09T22:17:53;4.03;;;1.05;;
39948;SDS011;29070;48.102;-1.652;2022-09-09T22:22:54;4.55;;;0.85;;
39948;SDS011;29070;48.102;-1.652;2022-09-09T22:27:54;4.13;;;1.27;;
39948;SDS011;29070;48.102;-1.652;2022-09-09T22:32:56;6.30;;;1.17;;
39948;SDS011;29070;48.102;-1.652;2022-09-09T22:37:57;7.05;;;1.20;;
39948;SDS011;29070;48.102;-1.652;2022-09-09T22:42:57;8.27;;;1.87;;
39948;SDS011;29070;48.102;-1.652;2022-09-09T22:48:01;6.00;;;1.17;;
39948;SDS011;29070;48.102;-1.652;2022-09-09T22:53:05;9.48;;;1.70;;
39948;SDS011;29070;48.102;-1.652;2022-09-09T22:58:05;9.30;;;1.73;;
39948;SDS011;29070;48.102;-1.652;2022-09-09T23:03:06;3.83;;;0.97;;
39948;SDS011;29070;48.102;-1.652;2022-09-09T23:08:06;6.60;;;1.17;;
39948;SDS011;29070;48.102;-1.652;2022-09-09T23:13:07;6.43;;;1.17;;
39948;SDS011;29070;48.102;-1.652;2022-09-09T23:18:08;5.88;;;1.05;;
39948;SDS011;29070;48.102;-1.652;2022-09-09T23:23:08;5.10;;;1.13;;
39948;SDS011;29070;48.102;-1.652;2022-09-09T23:28:12;4.90;;;1.33;;
39948;SDS011;29070;48.102;-1.652;2022-09-09T23:33:12;3.70;;;1.13;;
39948;SDS011;29070;48.102;-1.652;2022-09-09T23:38:12;8.87;;;1.00;;
39948;SDS011;29070;48.102;-1.652;2022-09-09T23:43:13;11.38;;;1.17;;
39948;SDS011;29070;48.102;-1.652;2022-09-09T23:48:14;4.20;;;0.93;;
39948;SDS011;29070;48.102;-1.652;2022-09-09T23:53:15;5.65;;;1.75;;
39948;SDS011;29070;48.102;-1.652;2022-09-09T23:58:16;6.15;;;1.58;;
